createdAt,value
2018-09-18T00:02:14.192Z,98550.74
2018-09-18T00:04:42.549Z,98551.72
2018-09-18T00:07:10.781Z,98545.86
2018-09-18T00:09:39.084Z,98547.69
2018-09-18T00:12:07.486Z,98550.28
2018-09-18T00:14:35.862Z,98560.14
2018-09-18T00:17:04.127Z,98557.09
2018-09-18T00:19:32.300Z,98552.57
2018-09-18T00:22:00.599Z,98549.03
2018-09-18T00:24:28.892Z,98550.87
2018-09-18T00:26:57.074Z,98551.72
2018-09-18T00:29:25.293Z,98549.03
2018-09-18T00:31:53.504Z,98543.66
2018-09-18T00:34:21.802Z,98545.49
2018-09-18T00:36:50.131Z,98532.55
2018-09-18T00:39:18.416Z,98537.30
2018-09-18T00:41:46.705Z,98532.05
2018-09-18T00:44:14.941Z,98536.09
2018-09-18T00:46:43.170Z,98534.25
2018-09-18T00:49:11.523Z,98535.59
2018-09-18T00:51:39.754Z,98532.55
2018-09-18T00:54:08.035Z,98535.59
2018-09-18T00:56:36.370Z,98529.37
2018-09-18T00:59:04.711Z,98527.17
2018-09-18T01:01:33.021Z,98529.37
2018-09-18T01:04:01.277Z,98529.86
2018-09-18T01:06:29.475Z,98528.02
2018-09-18T01:08:57.754Z,98521.80
2018-09-18T01:11:26.010Z,98525.21
2018-09-18T01:13:54.219Z,98525.83
2018-09-18T01:16:22.415Z,98525.83
2018-09-18T01:18:50.650Z,98524.48
2018-09-18T01:21:18.935Z,98521.40
2018-09-18T01:23:48.014Z,98524.94
2018-09-18T01:26:16.235Z,98528.61
2018-09-18T01:28:44.626Z,98530.80
2018-09-18T01:31:12.912Z,98526.77
2018-09-18T01:33:41.166Z,98525.43
2018-09-18T01:36:09.422Z,98533.12
2018-09-18T01:38:37.673Z,98534.47
2018-09-18T01:41:06.121Z,98529.95
2018-09-18T01:43:34.493Z,98524.09
2018-09-18T01:46:02.713Z,98524.48
2018-09-18T01:48:30.971Z,98532.15
2018-09-18T01:50:59.217Z,98524.22
2018-09-18T01:53:27.472Z,98525.92
2018-09-18T01:55:55.722Z,98521.40
2018-09-18T01:58:23.975Z,98522.16
2018-09-18T02:00:52.239Z,98520.55
2018-09-18T02:03:20.500Z,98522.37
2018-09-18T02:05:48.722Z,98527.63
2018-09-18T02:10:21.011Z,98521.89
2018-09-18T02:12:49.283Z,98520.19
2018-09-18T02:15:17.593Z,98520.55
2018-09-18T02:17:46.030Z,98519.20
2018-09-18T02:20:14.266Z,98521.52
2018-09-18T02:22:42.642Z,98521.89
2018-09-18T02:25:10.882Z,98516.42
2018-09-18T02:27:39.155Z,98524.09
2018-09-18T02:30:07.490Z,98522.74
2018-09-18T02:32:35.831Z,98515.66
2018-09-18T02:35:04.452Z,98512.48
2018-09-18T02:37:32.852Z,98510.28
2018-09-18T02:40:01.084Z,98510.28
2018-09-18T02:42:29.425Z,98510.78
2018-09-18T02:44:57.715Z,98511.27
2018-09-18T02:47:25.995Z,98511.63
2018-09-18T02:49:54.322Z,98509.44
2018-09-18T02:52:22.686Z,98510.28
2018-09-18T02:54:50.945Z,98509.04
2018-09-18T02:57:19.235Z,98513.47
2018-09-18T02:59:47.499Z,98514.81
2018-09-18T03:02:15.766Z,98514.81
2018-09-18T03:04:44.076Z,98514.41
2018-09-18T03:07:12.315Z,98518.45
2018-09-18T03:09:40.623Z,98514.91
2018-09-18T03:12:08.905Z,98512.22
2018-09-18T03:14:37.220Z,98515.75
2018-09-18T03:17:05.477Z,98517.59
2018-09-18T03:19:33.810Z,98517.98
2018-09-18T03:22:02.039Z,98517.98
2018-09-18T03:24:30.278Z,98517.09
2018-09-18T03:26:58.724Z,98515.30
2018-09-18T03:29:27.062Z,98515.75
2018-09-18T03:31:55.298Z,98513.47
2018-09-18T03:34:23.578Z,98506.35
2018-09-18T03:36:51.807Z,98510.78
2018-09-18T03:39:20.120Z,98508.58
2018-09-18T03:41:48.351Z,98512.22
2018-09-18T03:44:16.611Z,98511.72
2018-09-18T03:46:44.845Z,98517.59
2018-09-18T03:49:13.114Z,98515.30
2018-09-18T03:51:41.414Z,98510.88
2018-09-18T03:54:09.718Z,98506.84
2018-09-18T03:56:38.037Z,98506.35
2018-09-18T03:59:06.378Z,98506.84
2018-09-18T04:01:34.797Z,98493.98
2018-09-18T04:04:03.079Z,98501.47
2018-09-18T04:06:31.357Z,98501.11
2018-09-18T04:08:59.633Z,98498.02
2018-09-18T04:11:27.959Z,98499.76
2018-09-18T04:13:56.251Z,98503.79
2018-09-18T04:16:24.542Z,98502.32
2018-09-18T04:18:52.864Z,98502.05
2018-09-18T04:21:25.021Z,98505.50
2018-09-18T04:23:53.427Z,98506.35
2018-09-18T04:26:21.701Z,98498.91
2018-09-18T04:28:49.955Z,98495.23
2018-09-18T04:31:18.296Z,98500.52
2018-09-18T04:33:46.553Z,98506.35
2018-09-18T04:36:14.797Z,98511.27
2018-09-18T04:38:43.135Z,98512.22
2018-09-18T04:41:11.350Z,98510.60
2018-09-18T04:43:39.599Z,98514.64
2018-09-18T04:46:07.846Z,98514.05
2018-09-18T04:48:36.099Z,98519.42
2018-09-18T04:51:04.351Z,98513.56
2018-09-18T04:53:32.600Z,98517.09
2018-09-18T04:56:00.841Z,98510.88
2018-09-18T04:58:29.119Z,98517.98
2018-09-18T05:00:57.419Z,98510.28
2018-09-18T05:03:25.695Z,98515.66
2018-09-18T05:05:53.943Z,98523.14
2018-09-18T05:08:22.285Z,98524.09
2018-09-18T05:10:50.589Z,98524.09
2018-09-18T05:13:18.887Z,98526.28
2018-09-18T05:15:47.189Z,98530.31
2018-09-18T05:18:15.461Z,98530.80
2018-09-18T05:20:43.783Z,98537.52
2018-09-18T05:23:12.072Z,98539.36
2018-09-18T05:25:40.356Z,98537.16
2018-09-18T05:28:08.659Z,98537.52
2018-09-18T05:30:36.867Z,98538.50
2018-09-18T05:33:05.155Z,98537.16
2018-09-18T05:35:33.512Z,98536.30
2018-09-18T05:38:01.735Z,98542.63
2018-09-18T05:40:29.974Z,98539.22
2018-09-18T05:42:58.193Z,98530.39
2018-09-18T05:45:26.513Z,98542.09
2018-09-18T05:47:54.902Z,98542.98
2018-09-18T05:50:23.147Z,98542.98
2018-09-18T05:52:51.414Z,98540.65
2018-09-18T05:55:19.675Z,98548.35
2018-09-18T05:57:48.099Z,98548.72
2018-09-18T06:00:16.406Z,98549.20
2018-09-18T06:02:44.637Z,98548.72
2018-09-18T06:05:12.931Z,98546.02
2018-09-18T06:07:41.377Z,98548.72
2018-09-18T06:10:09.625Z,98555.92
2018-09-18T06:12:37.894Z,98560.80
2018-09-18T06:15:06.120Z,98564.84
2018-09-18T06:17:34.383Z,98561.30
2018-09-18T06:20:02.620Z,98559.46
2018-09-18T06:22:31.127Z,98563.49
2018-09-18T06:24:59.627Z,98564.84
2018-09-18T06:27:27.885Z,98565.81
2018-09-18T06:29:56.186Z,98562.64
2018-09-18T06:32:24.541Z,98564.93
2018-09-18T06:34:52.805Z,98566.67
2018-09-18T06:37:21.039Z,98569.84
2018-09-18T06:39:49.283Z,98571.55
2018-09-18T06:42:17.577Z,98572.53
2018-09-18T06:44:46.863Z,98576.44
2018-09-18T06:47:15.105Z,98577.91
2018-09-18T06:49:43.749Z,98582.30
2018-09-18T06:52:12.027Z,98582.30
2018-09-18T06:54:40.547Z,98573.75
2018-09-18T06:57:08.967Z,98570.57
2018-09-18T06:59:37.240Z,98573.88
2018-09-18T07:02:05.547Z,98575.95
2018-09-18T07:04:33.909Z,98576.83
2018-09-18T07:07:02.173Z,98581.72
2018-09-18T07:09:30.411Z,98582.58
2018-09-18T07:11:58.701Z,98581.59
2018-09-18T07:14:26.938Z,98574.02
2018-09-18T07:16:55.210Z,98570.39
2018-09-18T07:19:23.489Z,98576.61
2018-09-18T07:21:51.800Z,98575.77
2018-09-18T07:24:20.065Z,98573.08
2018-09-18T07:26:48.335Z,98570.39
2018-09-18T07:29:16.644Z,98569.99
2018-09-18T07:31:44.923Z,98568.42
2018-09-18T07:34:13.179Z,98566.72
2018-09-18T07:36:41.495Z,98569.77
2018-09-18T07:39:11.237Z,98578.23
2018-09-18T07:41:39.458Z,98574.30
2018-09-18T07:44:07.775Z,98573.44
2018-09-18T07:46:36.004Z,98571.97
2018-09-18T07:49:05.160Z,98569.77
2018-09-18T07:51:34.257Z,98572.86
2018-09-18T07:54:02.980Z,98574.20
2018-09-18T07:56:31.757Z,98570.53
2018-09-18T07:59:00.806Z,98568.70
2018-09-18T08:01:29.644Z,98568.70
2018-09-18T08:03:57.914Z,98570.44
2018-09-18T08:06:26.279Z,98577.16
2018-09-18T08:08:54.543Z,98572.64
2018-09-18T08:11:22.759Z,98571.30
2018-09-18T08:13:51.082Z,98574.34
2018-09-18T08:16:19.377Z,98570.80
2018-09-18T08:18:47.748Z,98568.97
2018-09-18T08:21:16.053Z,98571.66
2018-09-18T08:23:44.354Z,98572.51
2018-09-18T08:26:12.550Z,98565.70
2018-09-18T08:28:40.771Z,98576.81
2018-09-18T08:31:09.031Z,98570.58
2018-09-18T08:33:37.337Z,98571.56
2018-09-18T08:36:05.738Z,98574.13
2018-09-18T08:38:34.065Z,98576.35
2018-09-18T08:41:02.319Z,98574.13
2018-09-18T08:43:30.617Z,98574.13
2018-09-18T08:45:58.873Z,98570.22
2018-09-18T08:48:29.666Z,98576.23
2018-09-18T08:50:58.617Z,98576.81
2018-09-18T08:53:26.922Z,98572.78
2018-09-18T08:55:55.552Z,98576.81
2018-09-18T08:58:24.034Z,98577.20
2018-09-18T09:00:52.315Z,98573.17
2018-09-18T09:03:20.542Z,98572.32
2018-09-18T09:05:48.913Z,98575.86
2018-09-18T09:08:17.299Z,98577.20
2018-09-18T09:10:45.584Z,98579.05
2018-09-18T09:13:13.836Z,98570.00
2018-09-18T09:15:42.160Z,98577.20
2018-09-18T09:18:10.512Z,98577.20
2018-09-18T09:20:38.667Z,98581.23
2018-09-18T09:23:07.127Z,98576.81
2018-09-18T09:25:35.230Z,98583.93
2018-09-18T09:28:03.482Z,98581.23
2018-09-18T09:30:31.737Z,98573.66
2018-09-18T09:33:00.055Z,98575.47
2018-09-18T09:35:28.305Z,98575.47
2018-09-18T09:37:56.504Z,98569.23
2018-09-18T09:40:24.719Z,98566.06
2018-09-18T09:42:52.978Z,98569.63
2018-09-18T09:45:21.280Z,98572.78
2018-09-18T09:47:49.516Z,98564.72
2018-09-18T09:50:17.782Z,98555.31
2018-09-18T09:52:46.003Z,98555.31
2018-09-18T09:55:14.346Z,98556.66
2018-09-18T09:57:42.798Z,98556.29
2018-09-18T10:00:16.315Z,98558.00
2018-09-18T10:02:47.337Z,98556.66
2018-09-18T10:05:16.723Z,98551.28
2018-09-18T10:07:45.520Z,98547.25
2018-09-18T10:10:14.002Z,98543.22
2018-09-18T10:12:42.181Z,98546.39
2018-09-18T10:15:10.760Z,98545.91
2018-09-18T10:17:39.559Z,98541.88
2018-09-18T10:20:08.134Z,98544.95
2018-09-18T10:22:36.590Z,98544.95
2018-09-18T10:25:05.148Z,98541.41
2018-09-18T10:27:33.304Z,98539.19
2018-09-18T10:30:01.556Z,98544.95
2018-09-18T10:32:30.044Z,98541.77
2018-09-18T10:34:58.402Z,98539.94
2018-09-18T10:37:26.627Z,98541.28
2018-09-18T10:39:54.953Z,98537.25
2018-09-18T10:42:23.215Z,98532.38
2018-09-18T10:44:51.415Z,98532.38
2018-09-18T10:47:19.742Z,98528.34
2018-09-18T10:49:48.119Z,98528.83
2018-09-18T10:52:16.345Z,98524.80
2018-09-18T10:54:44.560Z,98518.57
2018-09-18T10:57:12.823Z,98510.83
2018-09-18T10:59:41.087Z,98519.42
2018-09-18T11:02:09.400Z,98518.93
2018-09-18T11:04:37.723Z,98521.13
2018-09-18T11:07:06.250Z,98513.55
2018-09-18T11:09:34.511Z,98510.02
2018-09-18T11:12:02.678Z,98511.36
2018-09-18T11:14:30.909Z,98510.38
2018-09-18T11:16:59.218Z,98504.15
2018-09-18T11:19:27.418Z,98507.33
2018-09-18T11:21:55.687Z,98499.63
2018-09-18T11:24:24.005Z,98493.89
2018-09-18T11:26:52.209Z,98494.38
2018-09-18T11:29:20.578Z,98495.23
2018-09-18T11:31:48.839Z,98494.38
2018-09-18T11:34:17.074Z,98497.92
2018-09-18T11:36:45.347Z,98494.38
2018-09-18T11:39:13.628Z,98493.03
2018-09-18T11:41:41.989Z,98493.49
2018-09-18T11:44:10.351Z,98489.46
2018-09-18T11:46:38.822Z,98494.84
2018-09-18T11:49:06.979Z,98487.17
2018-09-18T11:51:36.113Z,98487.17
2018-09-18T11:54:04.383Z,98486.67
2018-09-18T11:56:32.678Z,98487.27
2018-09-18T11:59:00.986Z,98484.48
2018-09-18T12:01:29.310Z,98483.99
2018-09-18T12:03:57.639Z,98477.77
2018-09-18T12:06:26.004Z,98480.94
2018-09-18T12:08:54.317Z,98477.77
2018-09-18T12:11:22.485Z,98475.08
2018-09-18T12:13:50.780Z,98475.56
2018-09-18T12:16:19.192Z,98472.88
2018-09-18T12:18:47.531Z,98471.53
2018-09-18T12:21:15.854Z,98463.08
2018-09-18T12:23:44.134Z,98467.50
2018-09-18T12:26:12.355Z,98461.64
2018-09-18T12:28:40.755Z,98465.67
2018-09-18T12:31:08.987Z,98454.52
2018-09-18T12:33:37.207Z,98450.48
2018-09-18T12:36:05.596Z,98459.90
2018-09-18T12:38:33.809Z,98456.75
2018-09-18T12:41:02.085Z,98458.55
2018-09-18T12:43:30.316Z,98450.88
2018-09-18T12:45:58.643Z,98444.27
2018-09-18T12:48:26.883Z,98441.48
2018-09-18T12:50:55.374Z,98439.64
2018-09-18T12:53:23.605Z,98440.63
2018-09-18T12:55:51.898Z,98443.19
2018-09-18T12:58:20.188Z,98436.47
2018-09-18T13:00:48.417Z,98433.78
2018-09-18T13:03:16.647Z,98435.12
2018-09-18T13:05:44.938Z,98432.92
2018-09-18T13:08:13.402Z,98429.38
2018-09-18T13:10:41.568Z,98436.95
2018-09-18T13:13:09.853Z,98427.06
2018-09-18T13:15:38.181Z,98428.89
2018-09-18T13:18:06.415Z,98420.47
2018-09-18T13:20:34.622Z,98418.24
2018-09-18T13:23:02.872Z,98413.75
2018-09-18T13:25:31.204Z,98413.75
2018-09-18T13:27:59.483Z,98410.57
2018-09-18T13:30:28.036Z,98407.03
2018-09-18T13:32:56.202Z,98400.67
2018-09-18T13:35:24.488Z,98397.13
2018-09-18T13:37:52.769Z,98392.71
2018-09-18T13:40:21.207Z,98389.07
2018-09-18T13:42:49.485Z,98387.23
2018-09-18T13:45:17.818Z,98385.04
2018-09-18T13:47:46.079Z,98379.66
2018-09-18T13:50:14.284Z,98385.98
2018-09-18T13:52:42.658Z,98382.71
2018-09-18T13:55:10.922Z,98382.71
2018-09-18T13:57:39.249Z,98379.08
2018-09-18T14:00:07.503Z,98381.50
2018-09-18T14:02:35.830Z,98379.27
2018-09-18T14:05:04.111Z,98380.62
2018-09-18T14:07:32.382Z,98377.92
2018-09-18T14:10:00.941Z,98380.02
2018-09-18T14:12:29.251Z,98374.29
2018-09-18T14:14:57.681Z,98371.20
2018-09-18T14:17:25.826Z,98368.59
2018-09-18T14:19:54.242Z,98374.31
2018-09-18T14:22:22.509Z,98364.91
2018-09-18T14:24:50.851Z,98368.45
2018-09-18T14:27:19.067Z,98371.14
2018-09-18T14:29:47.438Z,98358.30
2018-09-18T14:32:15.807Z,98366.36
2018-09-18T14:34:43.951Z,98367.70
2018-09-18T14:37:12.181Z,98364.66
2018-09-18T14:39:40.498Z,98363.80
2018-09-18T14:42:08.735Z,98361.96
2018-09-18T14:44:36.956Z,98363.31
2018-09-18T14:47:05.018Z,98357.67
2018-09-18T14:49:33.220Z,98353.15
2018-09-18T14:52:01.437Z,98353.64
2018-09-18T14:54:29.724Z,98348.76
2018-09-18T14:56:57.924Z,98357.08
2018-09-18T14:59:26.179Z,98352.78
2018-09-18T15:01:54.435Z,98354.13
2018-09-18T15:04:22.806Z,98357.31
2018-09-18T15:06:51.095Z,98358.16
2018-09-18T15:09:19.399Z,98357.18
2018-09-18T15:11:47.709Z,98360.84
2018-09-18T15:14:15.997Z,98356.81
2018-09-18T15:16:44.273Z,98359.51
2018-09-18T15:19:12.514Z,98362.55
2018-09-18T15:21:40.847Z,98357.67
2018-09-18T15:24:09.019Z,98357.31
2018-09-18T15:26:37.247Z,98359.11
2018-09-18T15:29:05.638Z,98361.80
2018-09-18T15:31:33.952Z,98370.84
2018-09-18T15:34:02.334Z,98372.19
2018-09-18T15:36:30.471Z,98372.68
2018-09-18T15:38:58.811Z,98376.71
2018-09-18T15:41:27.147Z,98377.56
2018-09-18T15:43:55.406Z,98383.92
2018-09-18T15:46:23.640Z,98391.98
2018-09-18T15:48:52.037Z,98389.30
2018-09-18T15:51:20.263Z,98390.15
2018-09-18T15:53:48.564Z,98393.33
2018-09-18T15:56:16.855Z,98391.00
2018-09-18T15:58:45.121Z,98394.18
2018-09-18T16:01:13.438Z,98401.27
2018-09-18T16:03:41.687Z,98401.75
2018-09-18T16:06:09.921Z,98404.08
2018-09-18T16:08:38.186Z,98403.95
2018-09-18T16:11:06.590Z,98401.39
2018-09-18T16:13:34.875Z,98400.05
2018-09-18T16:16:03.100Z,98403.59
2018-09-18T16:18:31.319Z,98401.39
2018-09-18T16:20:59.545Z,98406.77
2018-09-18T16:23:27.789Z,98406.77
2018-09-18T16:25:56.087Z,98397.82
2018-09-18T16:28:24.300Z,98397.36
2018-09-18T16:30:52.724Z,98404.44
2018-09-18T16:33:20.894Z,98408.97
2018-09-18T16:35:49.163Z,98400.91
2018-09-18T16:38:17.425Z,98414.34
2018-09-18T16:40:45.794Z,98408.11
2018-09-18T16:43:13.955Z,98408.57
2018-09-18T16:45:42.180Z,98410.80
2018-09-18T16:48:10.469Z,98414.83
2018-09-18T16:50:38.696Z,98420.66
2018-09-18T16:53:06.895Z,98425.94
2018-09-18T16:55:35.236Z,98425.58
2018-09-18T16:58:03.503Z,98425.58
2018-09-18T17:00:31.826Z,98426.04
2018-09-18T17:03:00.104Z,98428.73
2018-09-18T17:05:28.508Z,98422.50
2018-09-18T17:07:56.690Z,98427.88
2018-09-18T17:10:24.966Z,98420.30
2018-09-18T17:12:53.175Z,98422.14
2018-09-18T17:15:21.546Z,98421.09
2018-09-18T17:17:49.733Z,98413.78
2018-09-18T17:20:18.154Z,98422.20
2018-09-18T17:22:46.389Z,98429.33
2018-09-18T17:25:14.611Z,98427.22
2018-09-18T17:27:42.820Z,98432.20
2018-09-18T17:30:11.064Z,98446.04
2018-09-18T17:32:39.362Z,98444.30
2018-09-18T17:35:07.635Z,98452.49
2018-09-18T17:37:36.043Z,98456.39
2018-09-18T17:40:04.644Z,98452.98
2018-09-18T17:42:32.883Z,98462.39
2018-09-18T17:45:01.081Z,98465.94
2018-09-18T17:47:29.319Z,98470.91
2018-09-18T17:49:57.635Z,98471.41
2018-09-18T17:52:25.925Z,98474.09
2018-09-18T17:54:54.127Z,98472.88
2018-09-18T17:57:22.343Z,98476.42
2018-09-18T17:59:50.619Z,98472.39
2018-09-18T18:02:18.880Z,98473.73
2018-09-18T18:04:47.034Z,98476.02
2018-09-18T18:07:15.294Z,98482.74
2018-09-18T18:09:43.556Z,98490.80
2018-09-18T18:12:11.924Z,98495.72
2018-09-18T18:14:40.143Z,98502.90
2018-09-18T18:17:08.355Z,98508.27
2018-09-18T18:19:36.591Z,98520.37
2018-09-18T18:22:04.846Z,98534.20
2018-09-18T18:24:33.030Z,98542.63
2018-09-18T18:27:01.394Z,98542.63
2018-09-18T18:29:29.654Z,98543.61
2018-09-18T18:31:57.866Z,98547.73
2018-09-18T18:34:26.186Z,98542.36
2018-09-18T18:36:54.458Z,98546.79
2018-09-18T18:39:22.768Z,98544.56
2018-09-18T18:41:51.011Z,98556.66
2018-09-18T18:44:19.260Z,98552.63
2018-09-18T18:46:47.459Z,98562.79
2018-09-18T18:49:15.757Z,98566.82
2018-09-18T18:51:44.077Z,98556.47
2018-09-18T18:54:12.457Z,98546.66
2018-09-18T18:56:40.734Z,98559.03
2018-09-18T18:59:08.971Z,98559.87
2018-09-18T19:01:37.217Z,98560.28
2018-09-18T19:04:05.561Z,98568.70
2018-09-18T19:06:34.107Z,98573.98
2018-09-18T19:09:02.208Z,98576.67
2018-09-18T19:11:30.422Z,98575.69
2018-09-18T19:13:58.698Z,98571.17
2018-09-18T19:16:27.015Z,98585.00
2018-09-18T19:18:55.302Z,98584.52
2018-09-18T19:21:23.541Z,98581.83
2018-09-18T19:23:51.877Z,98579.41
2018-09-18T19:26:20.159Z,98581.34
2018-09-18T19:28:48.438Z,98568.75
2018-09-18T19:31:16.820Z,98571.92
2018-09-18T19:33:45.327Z,98570.85
2018-09-18T19:36:13.618Z,98574.03
2018-09-18T19:38:41.992Z,98573.54
2018-09-18T19:41:09.507Z,98568.07
2018-09-18T19:43:37.235Z,98567.89
2018-09-18T19:46:05.609Z,98561.78
2018-09-18T19:48:33.294Z,98564.45
2018-09-18T19:51:00.896Z,98556.84
2018-09-18T19:53:29.264Z,98555.58
2018-09-18T19:55:56.846Z,98554.67
2018-09-18T19:58:24.427Z,98555.46
2018-09-18T20:00:51.981Z,98561.53
2018-09-18T20:03:19.645Z,98563.62
2018-09-18T20:05:47.188Z,98570.88
2018-09-18T20:08:14.735Z,98583.86
2018-09-18T20:10:42.321Z,98599.43
2018-09-18T20:13:09.873Z,98596.14
2018-09-18T20:15:37.440Z,98604.13
2018-09-18T20:18:04.997Z,98605.08
2018-09-18T20:20:32.552Z,98604.48
2018-09-18T20:23:01.417Z,98608.27
2018-09-18T20:25:28.968Z,98595.64
2018-09-18T20:27:56.501Z,98592.59
2018-09-18T20:30:24.137Z,98600.68
2018-09-18T20:32:51.716Z,98597.38
2018-09-18T20:35:20.227Z,98601.04
2018-09-18T20:37:47.801Z,98617.11
2018-09-18T20:40:15.350Z,98613.31
2018-09-18T20:42:42.879Z,98613.31
2018-09-18T20:45:10.388Z,98612.96
2018-09-18T20:47:37.907Z,98617.25
2018-09-18T20:50:05.575Z,98629.64
2018-09-18T20:52:33.194Z,98636.88
2018-09-18T20:55:00.740Z,98638.83
2018-09-18T20:57:28.257Z,98642.45
2018-09-18T20:59:55.865Z,98649.55
2018-09-18T21:02:23.496Z,98646.09
2018-09-18T21:04:51.092Z,98654.91
2018-09-18T21:07:18.589Z,98662.13
2018-09-18T21:09:46.090Z,98658.22
2018-09-18T21:12:13.712Z,98657.94
2018-09-18T21:14:41.248Z,98654.02
2018-09-18T21:17:08.821Z,98659.13
2018-09-18T21:19:36.378Z,98653.86
2018-09-18T21:22:03.931Z,98661.20
2018-09-18T21:24:31.463Z,98658.84
2018-09-18T21:26:58.962Z,98656.73
2018-09-18T21:29:26.525Z,98649.80
2018-09-18T21:31:54.028Z,98649.92
2018-09-18T21:34:21.690Z,98645.72
2018-09-18T21:36:49.304Z,98648.89
2018-09-18T21:39:16.873Z,98651.94
2018-09-18T21:41:44.432Z,98651.91
2018-09-18T21:44:11.909Z,98649.06
2018-09-18T21:46:39.546Z,98642.66
2018-09-18T21:49:07.091Z,98646.58
2018-09-18T21:51:34.642Z,98653.16
2018-09-18T21:54:02.167Z,98652.53
2018-09-18T21:56:29.744Z,98657.77
2018-09-18T21:58:57.377Z,98655.80
2018-09-18T22:01:25.034Z,98650.25
2018-09-18T22:03:52.585Z,98650.09
2018-09-18T22:06:20.106Z,98655.67
2018-09-18T22:08:47.679Z,98657.73
2018-09-18T22:11:15.217Z,98662.50
2018-09-18T22:13:44.107Z,98657.80
2018-09-18T22:16:12.526Z,98654.00
2018-09-18T22:18:40.177Z,98651.04
2018-09-18T22:21:07.718Z,98652.13
2018-09-18T22:23:35.228Z,98655.05
2018-09-18T22:26:02.753Z,98655.27
2018-09-18T22:28:30.291Z,98653.76
2018-09-18T22:30:57.816Z,98659.73
2018-09-18T22:33:25.433Z,98661.70
2018-09-18T22:35:52.994Z,98665.83
2018-09-18T22:38:20.505Z,98662.78
2018-09-18T22:40:48.096Z,98664.31
2018-09-18T22:43:15.828Z,98669.83
2018-09-18T22:45:43.300Z,98672.13
2018-09-18T22:48:10.785Z,98670.91
2018-09-18T22:50:38.369Z,98666.47
2018-09-18T22:53:05.963Z,98669.30
2018-09-18T22:55:33.494Z,98663.16
2018-09-18T22:58:01.031Z,98673.06
2018-09-18T23:00:28.665Z,98666.43
2018-09-18T23:02:56.169Z,98672.30
2018-09-18T23:05:23.806Z,98671.55
2018-09-18T23:07:51.324Z,98673.02
2018-09-18T23:10:18.801Z,98671.77
2018-09-18T23:12:46.424Z,98674.19
2018-09-18T23:15:13.916Z,98675.53
2018-09-18T23:17:41.415Z,98672.48
2018-09-18T23:20:08.952Z,98674.77
2018-09-18T23:22:36.443Z,98675.85
2018-09-18T23:25:03.952Z,98672.31
2018-09-18T23:27:31.494Z,98682.30
2018-09-18T23:29:58.954Z,98685.61
2018-09-18T23:32:26.498Z,98683.88
2018-09-18T23:34:54.022Z,98689.25
2018-09-18T23:37:21.531Z,98689.37
2018-09-18T23:39:49.062Z,98688.48
2018-09-18T23:42:16.667Z,98685.05
2018-09-18T23:44:44.190Z,98683.30
2018-09-18T23:47:11.736Z,98691.37
2018-09-18T23:49:39.243Z,98686.11
2018-09-18T23:52:06.720Z,98686.20
2018-09-18T23:54:34.240Z,98695.63
2018-09-18T23:57:01.728Z,98695.26
2018-09-18T23:59:29.320Z,98693.15
